Time;durP1;ratioP1;P1;durP2;ratioP2;P2;SDS_P1;SDS_P2;PMS_P1;PMS_P2;Temp;Humidity;BMP_temperature;BMP_pressure;BME280_temperature;BME280_humidity;BME280_pressure;Samples;Min_cycle;Max_cycle;Signal;HPM_P1;HPM_P2
2022/05/23 00:01:03;;;;;;;3.33;1.83;;;12.30;99.90;;;;;;5090458;28;20035;-79
2022/05/23 00:03:31;;;;;;;5.22;2.10;;;12.40;99.90;;;;;;5092638;28;20089;-79
2022/05/23 00:06:00;;;;;;;4.53;2.38;;;12.40;99.90;;;;;;5092458;28;20024;-79
2022/05/23 00:08:28;;;;;;;2.47;1.92;;;12.30;99.90;;;;;;5092916;28;20039;-79
2022/05/23 00:10:54;;;;;;;2.28;1.55;;;12.30;99.90;;;;;;5091711;28;20028;-78
2022/05/23 00:13:20;;;;;;;3.15;1.90;;;12.20;99.90;;;;;;5090977;28;20405;-79
2022/05/23 00:15:48;;;;;;;2.08;1.60;;;12.20;99.90;;;;;;5092663;28;20462;-79
2022/05/23 00:18:17;;;;;;;4.18;1.92;;;12.20;99.90;;;;;;5092641;28;20013;-79
2022/05/23 00:20:43;;;;;;;5.07;2.50;;;12.10;99.90;;;;;;5091851;28;20032;-79
2022/05/23 00:23:09;;;;;;;3.42;2.00;;;12.10;99.90;;;;;;5092842;28;20043;-79
2022/05/23 00:25:35;;;;;;;3.47;1.95;;;12.10;99.90;;;;;;5091370;28;20098;-79
2022/05/23 00:28:01;;;;;;;2.65;1.90;;;12.10;99.90;;;;;;5091507;28;20115;-79
2022/05/23 00:30:30;;;;;;;3.92;2.20;;;12.10;99.90;;;;;;5090803;28;20020;-79
2022/05/23 00:35:54;;;;;;;3.35;1.80;;;12.10;99.90;;;;;;5092759;28;20031;-79
2022/05/23 00:38:24;;;;;;;3.08;1.80;;;12.10;99.90;;;;;;5093224;28;20020;-79
2022/05/23 00:44:09;;;;;;;;;;;12.00;99.90;;;;;;5093211;28;20086;-79
2022/05/23 00:46:35;;;;;;;2.17;1.95;;;12.00;99.90;;;;;;5092609;28;19948;-79
2022/05/23 00:49:08;;;;;;;2.90;2.22;;;12.00;99.90;;;;;;5092624;28;20429;-79
2022/05/23 00:51:34;;;;;;;4.68;2.03;;;11.90;99.90;;;;;;5090554;28;20024;-79
2022/05/23 00:54:05;;;;;;;5.75;2.38;;;11.90;99.90;;;;;;5092490;28;20020;-79
2022/05/23 00:56:43;;;;;;;3.80;2.63;;;11.90;99.90;;;;;;5091036;28;20024;-79
2022/05/23 00:59:11;;;;;;;3.42;2.00;;;11.90;99.90;;;;;;5092446;28;20060;-79
2022/05/23 01:01:38;;;;;;;5.80;2.60;;;11.90;99.90;;;;;;5090515;28;20393;-79
2022/05/23 01:04:06;;;;;;;3.63;2.28;;;11.80;99.90;;;;;;5092583;28;20428;-79
2022/05/23 01:06:32;;;;;;;7.82;2.53;;;11.80;99.90;;;;;;5092174;28;20059;-79
2022/05/23 01:09:00;;;;;;;5.47;2.70;;;11.80;99.90;;;;;;5091852;28;20034;-79
2022/05/23 01:11:28;;;;;;;5.00;2.20;;;11.80;99.90;;;;;;5094183;28;20023;-79
2022/05/23 01:13:57;;;;;;;6.15;2.38;;;11.70;99.90;;;;;;5096154;28;20024;-80
2022/05/23 01:16:24;;;;;;;5.93;2.53;;;11.80;99.90;;;;;;5096327;28;20433;-79
2022/05/23 01:18:50;;;;;;;4.53;2.28;;;11.70;99.90;;;;;;5096292;28;20021;-79
2022/05/23 01:21:48;;;;;;;4.22;2.50;;;11.70;99.90;;;;;;5094130;28;20032;-78
2022/05/23 01:24:47;;;;;;;2.45;2.08;;;11.70;99.90;;;;;;5094394;28;20024;-80
2022/05/23 01:27:15;;;;;;;4.53;2.38;;;11.70;99.90;;;;;;5094688;28;20366;-79
2022/05/23 01:29:45;;;;;;;4.78;2.30;;;11.60;99.90;;;;;;5093983;28;20028;-79
2022/05/23 01:32:11;;;;;;;2.97;2.38;;;11.70;99.90;;;;;;5094366;28;20073;-79
2022/05/23 01:34:37;;;;;;;4.15;2.00;;;11.60;99.90;;;;;;5095731;28;20016;-79
2022/05/23 01:37:04;;;;;;;2.67;1.90;;;11.60;99.90;;;;;;5095954;28;20380;-79
2022/05/23 01:39:32;;;;;;;4.30;1.90;;;11.60;99.90;;;;;;5093130;28;20028;-79
2022/05/23 01:42:01;;;;;;;3.22;2.22;;;11.50;99.90;;;;;;5095126;28;20020;-79
2022/05/23 01:44:28;;;;;;;3.53;2.60;;;11.50;99.90;;;;;;5095327;28;20081;-79
2022/05/23 01:46:56;;;;;;;3.90;2.50;;;11.50;99.90;;;;;;5095477;28;20457;-79
2022/05/23 01:49:24;;;;;;;3.35;2.50;;;11.50;99.90;;;;;;5095392;28;20530;-79
2022/05/23 01:51:50;;;;;;;5.57;2.47;;;11.50;99.90;;;;;;5093835;28;20031;-79
2022/05/23 01:54:18;;;;;;;5.93;2.20;;;11.50;99.90;;;;;;5094004;28;20020;-79
2022/05/23 01:56:43;;;;;;;3.33;2.22;;;11.40;99.90;;;;;;5093506;28;20393;-79
2022/05/23 02:02:03;;;;;;;4.28;2.50;;;11.30;99.90;;;;;;5094584;28;20549;-79
2022/05/23 02:04:29;;;;;;;4.10;2.55;;;11.30;99.90;;;;;;5094454;28;20028;-78
2022/05/23 02:06:55;;;;;;;5.25;2.58;;;11.30;99.90;;;;;;5092894;28;20074;-78
2022/05/23 02:09:26;;;;;;;6.70;2.60;;;11.20;99.90;;;;;;5094542;28;20039;-78
2022/05/23 02:11:53;;;;;;;3.20;2.28;;;11.20;99.90;;;;;;5092563;28;20401;-79
2022/05/23 02:14:19;;;;;;;5.57;2.25;;;11.20;99.90;;;;;;5093465;28;20446;-79
2022/05/23 02:16:45;;;;;;;4.30;2.35;;;11.20;99.90;;;;;;5092846;28;20513;-78
2022/05/23 02:19:13;;;;;;;5.60;2.30;;;11.10;99.90;;;;;;5094210;28;20047;-78
2022/05/23 02:21:41;;;;;;;3.72;2.35;;;11.10;99.90;;;;;;5091912;28;20211;-78
2022/05/23 02:24:07;;;;;;;7.00;2.60;;;11.10;99.90;;;;;;5092778;28;20028;-77
2022/05/23 02:26:36;;;;;;;4.50;2.65;;;11.00;99.90;;;;;;5094187;28;20047;-78
2022/05/23 02:29:08;;;;;;;4.63;2.33;;;11.00;99.90;;;;;;5092997;28;20626;-78
2022/05/23 02:31:34;;;;;;;5.88;2.80;;;11.00;99.90;;;;;;5091244;28;20053;-78
2022/05/23 02:34:00;;;;;;;7.38;2.97;;;11.00;99.90;;;;;;5093754;28;20271;-79
2022/05/23 02:36:26;;;;;;;4.90;3.00;;;11.00;99.90;;;;;;5092271;28;20031;-78
2022/05/23 02:38:54;;;;;;;5.30;2.45;;;11.00;99.90;;;;;;5092212;28;20031;-78
2022/05/23 02:41:20;;;;;;;4.15;2.45;;;10.90;99.90;;;;;;5091915;28;20031;-78
2022/05/23 02:43:49;;;;;;;6.13;2.67;;;11.00;99.90;;;;;;5093653;28;20396;-78
2022/05/23 02:46:15;;;;;;;6.47;2.85;;;11.00;99.90;;;;;;5093397;28;20472;-78
2022/05/23 02:48:43;;;;;;;5.68;2.67;;;11.00;99.90;;;;;;5092046;28;20074;-79
2022/05/23 02:51:11;;;;;;;5.78;2.53;;;11.00;99.90;;;;;;5092702;28;20594;-78
2022/05/23 02:53:39;;;;;;;7.00;3.22;;;11.00;99.90;;;;;;5091788;28;20207;-78
2022/05/23 02:56:08;;;;;;;8.38;2.60;;;11.10;99.90;;;;;;5091943;28;20027;-78
2022/05/23 02:58:33;;;;;;;6.28;2.65;;;11.10;99.90;;;;;;5091938;28;20408;-78
2022/05/23 03:01:02;;;;;;;3.53;2.10;;;11.10;99.90;;;;;;5092558;28;20032;-78
2022/05/23 03:03:28;;;;;;;4.22;2.58;;;11.10;99.90;;;;;;5092803;28;20388;-78
2022/05/23 03:05:53;;;;;;;5.88;2.50;;;11.10;99.90;;;;;;5091377;28;20024;-78
2022/05/23 03:08:22;;;;;;;8.50;2.85;;;11.10;99.90;;;;;;5091413;28;20036;-78
2022/05/23 03:10:49;;;;;;;6.25;2.67;;;11.10;99.90;;;;;;5092423;28;20438;-78
2022/05/23 03:13:15;;;;;;;7.50;2.38;;;11.10;99.90;;;;;;5091319;28;20024;-78
2022/05/23 03:15:40;;;;;;;7.63;2.55;;;11.10;99.90;;;;;;5091318;28;20186;-78
2022/05/23 03:18:06;;;;;;;5.00;2.67;;;11.10;99.90;;;;;;5091259;28;20025;-78
2022/05/23 03:20:32;;;;;;;5.45;2.53;;;11.10;99.90;;;;;;5092195;28;20026;-78
2022/05/23 03:28:26;;;;;;;4.53;2.50;;;11.00;99.90;;;;;;5093018;28;20027;-78
2022/05/23 03:30:52;;;;;;;6.85;2.95;;;10.90;99.90;;;;;;5090248;28;20021;-78
2022/05/23 03:33:18;;;;;;;6.38;3.05;;;10.90;99.90;;;;;;5090502;28;20049;-79
2022/05/23 03:35:44;;;;;;;4.22;2.92;;;10.90;99.90;;;;;;5092239;28;20117;-78
2022/05/23 03:38:10;;;;;;;6.35;3.22;;;10.90;99.90;;;;;;5092106;28;20064;-79
2022/05/23 03:40:38;;;;;;;4.03;2.85;;;10.90;99.90;;;;;;5091460;28;20028;-78
2022/05/23 03:43:04;;;;;;;9.15;3.50;;;10.90;99.90;;;;;;5092228;28;20031;-78
2022/05/23 03:45:30;;;;;;;4.60;3.50;;;10.80;99.90;;;;;;5092165;28;20126;-78
2022/05/23 03:47:57;;;;;;;6.07;2.60;;;10.90;99.90;;;;;;5092126;28;20020;-79
2022/05/23 03:50:25;;;;;;;6.10;3.20;;;11.00;99.90;;;;;;5091603;28;20028;-78
2022/05/23 03:52:52;;;;;;;2.88;2.53;;;11.00;99.90;;;;;;5092046;28;20024;-78
2022/05/23 03:55:18;;;;;;;4.72;2.90;;;11.00;99.90;;;;;;5092035;28;20103;-78
2022/05/23 03:57:47;;;;;;;3.45;2.67;;;11.00;99.90;;;;;;5090845;28;20028;-78
2022/05/23 04:00:13;;;;;;;6.30;3.15;;;11.10;99.90;;;;;;5090351;28;20058;-78
2022/05/23 04:02:40;;;;;;;6.63;3.10;;;11.10;99.90;;;;;;5091112;28;20024;-78
2022/05/23 04:05:10;;;;;;;3.28;2.70;;;11.10;99.90;;;;;;5091030;28;20028;-78
2022/05/23 04:07:38;;;;;;;12.75;3.05;;;11.10;99.90;;;;;;5091054;28;20135;-78
2022/05/23 04:10:06;;;;;;;6.70;2.60;;;11.10;99.90;;;;;;5091675;28;20028;-78
2022/05/23 04:12:32;;;;;;;5.72;3.00;;;11.10;99.90;;;;;;5090918;28;20024;-78
2022/05/23 04:14:58;;;;;;;5.63;2.70;;;11.20;99.90;;;;;;5092451;28;20081;-78
2022/05/23 04:17:26;;;;;;;4.32;2.75;;;11.20;99.90;;;;;;5090831;28;20451;-78
2022/05/23 04:19:54;;;;;;;3.50;2.38;;;11.20;99.90;;;;;;5090356;28;20020;-78
2022/05/23 04:22:23;;;;;;;5.88;2.80;;;11.30;99.90;;;;;;5090879;28;20036;-79
2022/05/23 04:24:49;;;;;;;3.72;2.35;;;11.30;99.90;;;;;;5091368;28;20404;-79
2022/05/23 04:27:15;;;;;;;4.88;2.75;;;11.30;99.90;;;;;;5091006;28;20035;-79
2022/05/23 04:29:41;;;;;;;4.80;2.88;;;11.40;99.90;;;;;;5090429;28;20024;-79
2022/05/23 04:35:12;;;;;;;4.97;2.90;;;11.40;99.90;;;;;;5091354;28;20047;-79
2022/05/23 04:37:36;;;;;;;5.78;3.53;;;11.50;99.90;;;;;;5092683;28;20401;-79
2022/05/23 04:40:01;;;;;;;6.72;3.13;;;11.60;99.90;;;;;;5090273;28;20016;-79
2022/05/23 04:42:27;;;;;;;6.63;2.97;;;11.70;99.90;;;;;;5091553;28;20020;-79
2022/05/23 04:44:53;;;;;;;7.40;2.88;;;11.70;99.90;;;;;;5095999;28;20488;-79
2022/05/23 04:50:04;;;;;;;10.73;3.25;;;11.90;99.90;;;;;;5096093;28;20406;-79
2022/05/23 04:52:30;;;;;;;6.72;3.08;;;11.90;99.90;;;;;;5094409;28;20098;-79
2022/05/23 04:54:55;;;;;;;5.13;2.65;;;11.90;99.90;;;;;;5095612;28;20016;-83
2022/05/23 04:57:21;;;;;;;6.15;3.13;;;11.90;99.90;;;;;;5095217;28;20038;-83
2022/05/23 04:59:47;;;;;;;4.82;2.80;;;11.90;99.90;;;;;;5096154;28;20024;-83
2022/05/23 05:02:13;;;;;;;8.85;2.97;;;12.00;99.90;;;;;;5096723;28;20020;-84
2022/05/23 05:04:39;;;;;;;4.90;2.60;;;12.10;99.90;;;;;;5095097;28;20035;-83
2022/05/23 05:07:05;;;;;;;5.90;2.85;;;12.10;99.90;;;;;;5096100;28;20028;-83
2022/05/23 05:09:31;;;;;;;4.20;2.75;;;12.10;99.90;;;;;;5096383;28;20051;-83
2022/05/23 05:11:57;;;;;;;8.95;3.30;;;12.20;99.90;;;;;;5096664;28;20034;-83
2022/05/23 05:14:22;;;;;;;4.55;2.92;;;12.30;99.90;;;;;;5096466;28;20028;-84
2022/05/23 05:16:49;;;;;;;4.53;2.97;;;12.30;99.90;;;;;;5095101;28;20185;-83
2022/05/23 05:19:15;;;;;;;4.78;2.65;;;12.30;99.90;;;;;;5094673;28;20021;-83
2022/05/23 05:21:40;;;;;;;8.02;2.95;;;12.30;99.90;;;;;;5095440;28;20039;-84
2022/05/23 05:24:06;;;;;;;7.72;3.00;;;12.40;99.90;;;;;;5094207;28;20032;-83
2022/05/23 05:26:32;;;;;;;8.27;3.45;;;12.50;99.90;;;;;;5094071;28;20028;-83
2022/05/23 05:28:58;;;;;;;7.53;3.00;;;12.60;99.90;;;;;;5094013;28;20119;-84
2022/05/23 05:31:36;;;;;;;4.63;2.67;;;12.70;99.90;;;;;;5095210;28;20104;-84
2022/05/23 05:34:09;;;;;;;6.18;3.08;;;12.80;99.90;;;;;;5094576;28;20020;-83
2022/05/23 05:36:40;;;;;;;6.45;3.38;;;12.90;99.90;;;;;;5095331;28;20020;-84
2022/05/23 05:39:07;;;;;;;9.77;3.78;;;13.00;99.90;;;;;;5093884;28;20020;-83
2022/05/23 05:42:13;;;;;;;9.93;3.00;;;13.10;99.90;;;;;;5093261;28;20023;-84
2022/05/23 05:44:43;;;;;;;8.10;3.72;;;13.30;99.90;;;;;;5085467;28;20031;-84
2022/05/23 05:47:12;;;;;;;4.67;3.13;;;13.50;99.90;;;;;;5096578;28;20099;-83
2022/05/23 05:49:41;;;;;;;10.40;3.75;;;13.60;99.90;;;;;;5095142;28;20032;-83
2022/05/23 05:52:10;;;;;;;9.98;3.42;;;13.80;99.90;;;;;;5093999;28;20024;-84
2022/05/23 05:54:39;;;;;;;9.40;3.10;;;14.00;99.90;;;;;;5093693;28;20020;-83
2022/05/23 05:57:12;;;;;;;7.88;3.13;;;14.10;99.90;;;;;;5094908;28;20024;-83
2022/05/23 05:59:38;;;;;;;6.07;3.20;;;14.30;99.90;;;;;;5095644;28;20430;-83
2022/05/23 06:02:09;;;;;;;6.55;2.95;;;14.50;99.90;;;;;;5096779;28;20059;-84
2022/05/23 06:04:36;;;;;;;6.75;2.53;;;14.70;99.90;;;;;;5095026;28;20063;-83
2022/05/23 06:12:32;;;;;;;7.20;2.80;;;15.30;99.90;;;;;;5096777;28;20100;-84
2022/05/23 06:14:58;;;;;;;12.70;3.17;;;15.50;99.90;;;;;;5094974;28;20024;-84
2022/05/23 06:17:24;;;;;;;5.82;2.90;;;15.70;99.90;;;;;;5095704;28;20027;-84
2022/05/23 06:19:49;;;;;;;5.95;2.95;;;15.80;99.90;;;;;;5094214;28;20472;-82
2022/05/23 06:22:16;;;;;;;6.22;3.05;;;16.00;99.90;;;;;;5094265;28;20024;-83
2022/05/23 06:24:42;;;;;;;8.35;2.83;;;16.00;99.90;;;;;;5093826;28;20028;-84
2022/05/23 06:27:10;;;;;;;5.35;2.75;;;16.10;99.90;;;;;;5095492;28;20024;-83
2022/05/23 06:29:38;;;;;;;6.70;2.97;;;16.10;99.90;;;;;;5093965;28;20032;-83
2022/05/23 06:32:04;;;;;;;7.50;3.03;;;16.10;99.90;;;;;;5095313;28;20508;-82
2022/05/23 06:34:33;;;;;;;6.63;2.58;;;16.00;99.90;;;;;;5095575;28;20066;-83
2022/05/23 06:36:59;;;;;;;7.03;2.90;;;16.00;99.90;;;;;;5095698;28;20036;-83
2022/05/23 06:39:28;;;;;;;9.05;2.92;;;16.00;99.90;;;;;;5095225;28;20016;-83
2022/05/23 06:41:56;;;;;;;6.97;3.03;;;16.00;99.90;;;;;;5093623;28;20126;-83
2022/05/23 06:44:24;;;;;;;8.77;3.15;;;16.10;99.90;;;;;;5094930;28;20062;-83
2022/05/23 06:46:50;;;;;;;8.65;3.17;;;16.20;99.90;;;;;;5094516;28;20020;-83
2022/05/23 06:49:18;;;;;;;5.60;2.88;;;16.20;99.90;;;;;;5094259;28;20481;-83
2022/05/23 06:51:51;;;;;;;7.45;3.13;;;16.30;99.90;;;;;;5093314;28;20081;-83
2022/05/23 06:54:19;;;;;;;10.02;2.65;;;16.40;99.90;;;;;;5095703;28;20038;-83
2022/05/23 06:56:46;;;;;;;6.03;2.78;;;16.40;99.90;;;;;;5093615;28;20024;-83
2022/05/23 06:59:16;;;;;;;6.25;2.88;;;16.60;99.90;;;;;;5093127;28;20020;-83
2022/05/23 07:01:42;;;;;;;5.20;2.45;;;16.70;99.90;;;;;;5094167;28;20068;-82
2022/05/23 07:04:10;;;;;;;7.55;2.65;;;16.70;99.80;;;;;;5092999;28;20032;-83
2022/05/23 07:12:27;;;;;;;9.55;3.33;;;16.90;99.70;;;;;;5093849;28;20038;-83
2022/05/23 07:15:03;;;;;;;8.05;2.72;;;17.00;99.60;;;;;;5092515;28;20028;-83
2022/05/23 07:17:28;;;;;;;8.52;3.00;;;17.00;99.00;;;;;;5093913;28;20048;-84
2022/05/23 07:19:56;;;;;;;5.85;3.15;;;17.10;99.10;;;;;;5093157;28;20056;-84
2022/05/23 07:22:22;;;;;;;5.57;2.65;;;17.10;99.10;;;;;;5093657;28;20380;-83
2022/05/23 07:24:48;;;;;;;4.90;3.03;;;17.20;99.10;;;;;;5092668;28;20035;-84
2022/05/23 07:27:14;;;;;;;7.47;3.67;;;17.20;98.40;;;;;;5092265;28;20485;-83
2022/05/23 07:29:40;;;;;;;13.00;3.35;;;17.10;98.50;;;;;;5092107;28;20032;-83
2022/05/23 07:32:08;;;;;;;9.13;3.38;;;17.20;98.50;;;;;;5092538;28;20024;-83
2022/05/23 07:34:34;;;;;;;7.25;3.08;;;17.30;98.20;;;;;;5092748;28;20024;-83
2022/05/23 07:37:00;;;;;;;7.95;3.00;;;17.60;98.10;;;;;;5092206;28;20068;-83
2022/05/23 07:39:25;;;;;;;6.55;2.97;;;17.70;98.10;;;;;;5093553;28;20031;-84
2022/05/23 07:41:51;;;;;;;6.88;3.50;;;17.80;97.80;;;;;;5093789;28;20028;-81
2022/05/23 07:44:29;;;;;;;5.35;3.67;;;17.90;97.20;;;;;;5092551;28;20638;-83
2022/05/23 07:46:56;;;;;;;8.82;3.70;;;17.80;97.20;;;;;;5094278;28;20032;-83
2022/05/23 07:49:23;;;;;;;6.65;3.78;;;17.80;97.30;;;;;;5096475;28;20024;-83
2022/05/23 07:51:53;;;;;;;7.95;4.15;;;17.70;97.20;;;;;;5095213;28;20028;-84
2022/05/23 08:02:39;;;;;;;5.30;3.30;;;17.60;97.30;;;;;;5097855;28;20093;-83
2022/05/23 08:05:05;;;;;;;7.30;3.17;;;17.80;96.80;;;;;;5096313;28;20024;-82
2022/05/23 08:07:34;;;;;;;4.45;3.00;;;17.90;97.00;;;;;;5097412;28;20561;-83
2022/05/23 08:10:04;;;;;;;8.73;3.78;;;18.00;97.20;;;;;;5096029;28;20046;-83
2022/05/23 08:12:31;;;;;;;4.63;2.90;;;18.00;97.10;;;;;;5096614;28;20024;-83
2022/05/23 08:14:57;;;;;;;5.25;3.33;;;18.30;97.00;;;;;;5095979;28;20036;-82
2022/05/23 08:17:26;;;;;;;7.63;2.90;;;18.50;97.50;;;;;;5096146;28;20499;-82
2022/05/23 08:19:54;;;;;;;4.75;3.20;;;18.70;96.80;;;;;;5094596;28;20052;-83
2022/05/23 08:22:20;;;;;;;6.32;3.35;;;18.90;96.50;;;;;;5095366;28;20035;-82
2022/05/23 08:24:46;;;;;;;5.95;3.15;;;19.00;96.30;;;;;;5095247;28;20035;-82
2022/05/23 08:27:13;;;;;;;6.65;3.50;;;19.00;95.20;;;;;;5096034;28;20031;-83
2022/05/23 08:29:39;;;;;;;7.93;2.75;;;19.30;95.20;;;;;;5095127;28;20028;-82
2022/05/23 08:32:09;;;;;;;5.53;3.22;;;19.40;94.80;;;;;;5096471;28;20039;-83
2022/05/23 08:34:38;;;;;;;7.07;2.72;;;19.40;94.50;;;;;;5095401;28;20035;-83
2022/05/23 08:37:07;;;;;;;5.38;3.05;;;19.50;94.70;;;;;;5095527;28;20040;-83
2022/05/23 08:39:36;;;;;;;7.20;3.15;;;19.60;94.30;;;;;;5097116;28;20154;-83
2022/05/23 08:42:30;;;;;;;5.75;3.30;;;19.70;94.20;;;;;;5098013;28;20028;-82
2022/05/23 08:45:13;;;;;;;8.43;3.70;;;19.70;94.40;;;;;;5093549;28;20036;-83
2022/05/23 08:48:05;;;;;;;6.13;3.33;;;19.70;94.00;;;;;;5097472;28;20084;-83
2022/05/23 08:50:53;;;;;;;8.77;3.40;;;19.80;94.10;;;;;;5096717;28;20417;-83
2022/05/23 08:53:28;;;;;;;6.70;2.90;;;19.60;94.00;;;;;;5096684;28;20039;-84
2022/05/23 08:56:01;;;;;;;5.97;3.13;;;19.70;94.00;;;;;;5097730;28;20012;-83
2022/05/23 08:58:41;;;;;;;6.20;3.30;;;19.70;94.00;;;;;;5096946;28;20085;-83
2022/05/23 09:02:04;;;;;;;;;;;19.70;93.80;;;;;;5096644;28;20056;-83
2022/05/23 09:04:38;;;;;;;5.90;3.22;;;19.60;94.30;;;;;;5092031;28;19904;-82
2022/05/23 09:07:07;;;;;;;6.82;3.10;;;19.70;93.80;;;;;;5096275;28;20100;-82
2022/05/23 09:09:36;;;;;;;5.18;2.78;;;19.70;94.40;;;;;;5096408;28;20028;-83
2022/05/23 09:12:09;;;;;;;9.13;3.67;;;19.90;94.10;;;;;;5095658;28;20098;-83
2022/05/23 09:14:35;;;;;;;4.10;2.83;;;19.90;93.50;;;;;;5097437;28;20023;-82
2022/05/23 09:17:05;;;;;;;6.40;3.20;;;19.80;93.50;;;;;;5097928;28;20244;-82
2022/05/23 09:19:40;;;;;;;5.15;2.92;;;19.90;93.70;;;;;;5098557;28;20016;-83
2022/05/23 09:22:52;;;;;;;7.10;3.13;;;20.00;93.70;;;;;;5097452;28;20028;-83
2022/05/23 09:25:21;;;;;;;6.05;3.97;;;19.80;93.00;;;;;;5038598;28;20033;-82
2022/05/23 09:27:51;;;;;;;6.72;2.95;;;19.70;93.10;;;;;;5055784;28;20080;-82
2022/05/23 09:30:26;;;;;;;3.70;3.05;;;19.90;93.30;;;;;;5070617;28;20032;-83
2022/05/23 09:33:27;;;;;;;6.57;2.75;;;20.00;93.10;;;;;;5100920;28;20020;-82
2022/05/23 09:36:19;;;;;;;6.68;2.75;;;20.10;92.90;;;;;;5099373;28;20056;-83
2022/05/23 09:38:54;;;;;;;5.32;2.88;;;20.30;92.80;;;;;;5101262;28;20077;-83
2022/05/23 09:48:05;;;;;;;4.88;2.38;;;20.70;92.10;;;;;;5101668;28;20031;-82
2022/05/23 09:50:26;;;;;;;4.20;2.60;;;20.80;91.60;;;;;;5097690;28;20032;-84
2022/05/23 09:52:56;;;;;;;5.93;2.33;;;21.00;91.60;;;;;;5099614;28;20088;-83
2022/05/23 09:55:34;;;;;;;8.23;3.03;;;21.10;91.20;;;;;;5099177;28;20388;-83
2022/05/23 09:58:11;;;;;;;5.78;2.72;;;21.30;88.60;;;;;;5098986;28;20506;-83
2022/05/23 10:00:56;;;;;;;11.32;2.97;;;21.80;88.90;;;;;;5100013;28;20021;-82
2022/05/23 10:03:26;;;;;;;8.85;3.28;;;22.30;84.30;;;;;;5099720;28;20046;-83
2022/05/23 10:06:12;;;;;;;4.20;2.03;;;23.10;82.50;;;;;;5099372;28;20020;-84
2022/05/23 10:08:41;;;;;;;7.07;2.35;;;24.50;79.60;;;;;;5099968;28;20499;-83
2022/05/23 10:11:31;;;;;;;6.78;2.30;;;25.40;75.60;;;;;;5099735;28;20028;-83
2022/05/23 10:13:59;;;;;;;8.00;2.47;;;26.80;70.20;;;;;;5100730;28;20427;-83
2022/05/23 10:16:31;;;;;;;6.18;2.17;;;27.60;64.90;;;;;;5099058;28;20381;-84
2022/05/23 10:19:03;;;;;;;5.57;2.58;;;28.30;62.70;;;;;;5100948;28;20024;-83
2022/05/23 10:21:36;;;;;;;5.88;1.98;;;28.40;58.80;;;;;;5104441;28;20107;-84
2022/05/23 10:24:25;;;;;;;4.40;2.30;;;29.10;58.80;;;;;;5104452;28;20024;-84
2022/05/23 10:27:06;;;;;;;6.05;2.65;;;29.10;55.30;;;;;;5102740;28;20088;-85
2022/05/23 10:29:41;;;;;;;6.38;2.67;;;29.10;55.50;;;;;;5105253;28;20020;-85
2022/05/23 10:32:11;;;;;;;3.83;2.22;;;28.30;53.20;;;;;;5105234;28;20028;-84
2022/05/23 10:34:42;;;;;;;7.65;2.65;;;27.60;56.50;;;;;;5101944;28;20119;-83
2022/05/23 10:37:18;;;;;;;5.55;2.08;;;28.30;56.20;;;;;;5101476;28;20020;-85
2022/05/23 10:42:30;;;;;;;7.07;2.28;;;29.70;54.30;;;;;;5102127;28;20039;-85
2022/05/23 10:45:04;;;;;;;7.13;2.63;;;29.30;52.40;;;;;;5103129;28;20036;-85
2022/05/23 10:48:10;;;;;;;8.25;2.35;;;29.00;54.60;;;;;;5102970;28;20050;-84
2022/05/23 10:50:49;;;;;;;6.63;2.28;;;29.30;53.80;;;;;;5102429;28;20481;-84
2022/05/23 10:53:28;;;;;;;5.93;2.10;;;30.00;52.40;;;;;;5102013;28;20085;-84
2022/05/23 10:56:21;;;;;;;5.10;2.20;;;30.40;52.60;;;;;;5101604;28;20019;-81
2022/05/23 10:59:16;;;;;;;7.43;2.78;;;30.50;51.00;;;;;;5101724;28;20118;-82
2022/05/23 11:02:12;;;;;;;5.07;2.00;;;30.10;51.30;;;;;;5101580;28;20024;-84
2022/05/23 11:05:15;;;;;;;6.82;2.60;;;29.60;51.80;;;;;;5101029;28;20016;-84
2022/05/23 11:08:00;;;;;;;7.85;2.50;;;29.00;53.30;;;;;;5099660;28;20025;-84
2022/05/23 11:10:32;;;;;;;4.07;2.35;;;27.70;53.80;;;;;;5100249;28;20053;-83
2022/05/23 11:13:04;;;;;;;3.50;2.38;;;27.50;54.20;;;;;;5101351;28;20028;-83
2022/05/23 11:15:54;;;;;;;4.55;2.60;;;27.30;55.50;;;;;;5098992;28;20024;-81
2022/05/23 11:18:49;;;;;;;5.13;2.42;;;27.20;56.00;;;;;;5100045;28;20027;-83
2022/05/23 11:21:46;;;;;;;6.68;2.13;;;26.90;54.60;;;;;;5097976;28;20095;-82
2022/05/23 11:24:20;;;;;;;5.28;2.28;;;26.40;56.40;;;;;;5098975;28;20020;-83
2022/05/23 11:26:51;;;;;;;6.78;2.60;;;26.10;56.80;;;;;;5100007;28;20035;-83
2022/05/23 11:35:10;;;;;;;5.03;2.47;;;25.90;57.10;;;;;;5101637;28;20373;-83
2022/05/23 11:37:49;;;;;;;8.35;2.13;;;25.70;57.40;;;;;;5100333;28;20086;-83
2022/05/23 11:40:30;;;;;;;4.88;2.25;;;26.10;55.90;;;;;;5097988;28;20020;-83
2022/05/23 11:43:10;;;;;;;5.53;2.60;;;26.70;57.40;;;;;;5100532;28;20028;-83
2022/05/23 11:45:57;;;;;;;5.43;2.33;;;27.90;54.70;;;;;;5099080;28;20020;-83
2022/05/23 11:48:35;;;;;;;5.30;2.35;;;29.30;52.80;;;;;;5099324;28;20497;-83
2022/05/23 11:51:29;;;;;;;4.93;2.30;;;30.20;51.10;;;;;;5097362;28;20058;-81
2022/05/23 11:54:01;;;;;;;6.90;2.30;;;29.90;51.20;;;;;;5094649;28;20054;-84
2022/05/23 11:56:48;;;;;;;5.50;2.00;;;28.70;51.60;;;;;;5098405;28;20107;-84
2022/05/23 11:59:23;;;;;;;7.93;2.22;;;28.80;52.70;;;;;;5098651;28;20384;-83
2022/05/23 12:02:07;;;;;;;6.80;1.95;;;28.70;53.30;;;;;;5097030;28;20043;-84
2022/05/23 12:04:52;;;;;;;6.32;2.38;;;29.20;53.30;;;;;;5097725;28;20077;-83
2022/05/23 12:07:43;;;;;;;6.70;2.78;;;29.20;52.70;;;;;;5092280;28;20039;-84
2022/05/23 12:10:36;;;;;;;5.07;2.33;;;29.30;54.70;;;;;;5095799;28;20035;-83
2022/05/23 12:13:39;;;;;;;4.55;2.15;;;29.30;53.10;;;;;;5092875;28;20048;-84
2022/05/23 12:16:31;;;;;;;7.57;2.20;;;29.20;53.10;;;;;;5094889;28;20032;-84
2022/05/23 12:19:28;;;;;;;6.72;2.35;;;29.10;52.90;;;;;;5094655;28;20023;-84
2022/05/23 12:22:15;;;;;;;6.40;2.45;;;28.80;54.30;;;;;;5092336;28;20482;-83
2022/05/23 12:25:05;;;;;;;6.50;2.35;;;28.90;54.10;;;;;;5094530;28;20526;-84
2022/05/23 12:27:43;;;;;;;4.43;2.33;;;29.10;54.00;;;;;;5093731;28;20024;-84
2022/05/23 12:30:21;;;;;;;6.30;2.47;;;29.20;53.80;;;;;;5094070;28;20121;-84
2022/05/23 12:33:00;;;;;;;4.72;1.88;;;29.30;53.80;;;;;;5094632;28;20393;-85
2022/05/23 12:35:48;;;;;;;5.32;2.60;;;29.30;54.00;;;;;;5094984;28;20027;-83
2022/05/23 12:38:34;;;;;;;5.35;2.17;;;29.10;54.30;;;;;;5096143;28;20442;-84
2022/05/23 12:41:19;;;;;;;6.47;2.65;;;28.90;53.70;;;;;;5097941;28;20107;-84
2022/05/23 12:44:03;;;;;;;6.47;2.80;;;28.60;52.80;;;;;;5103340;28;20031;-83
2022/05/23 12:47:16;;;;;;;3.58;2.30;;;28.00;53.10;;;;;;5102308;28;20043;-83
2022/05/23 12:50:05;;;;;;;4.88;2.47;;;27.80;53.90;;;;;;5073576;28;20032;-83
2022/05/23 12:52:57;;;;;;;4.80;2.38;;;26.90;54.90;;;;;;5099540;28;20020;-82
2022/05/23 12:55:37;;;;;;;6.85;2.50;;;26.20;56.20;;;;;;5101302;28;20020;-83
2022/05/23 12:58:25;;;;;;;8.25;2.90;;;26.50;57.20;;;;;;5099643;28;20095;-83
2022/05/23 13:00:59;;;;;;;6.20;2.67;;;26.70;56.70;;;;;;5101239;28;20055;-83
2022/05/23 13:03:41;;;;;;;5.88;2.20;;;26.90;56.20;;;;;;5102506;28;20088;-84
2022/05/23 13:06:17;;;;;;;4.35;2.10;;;27.30;56.90;;;;;;5102866;28;20028;-84
2022/05/23 13:09:06;;;;;;;10.05;2.47;;;27.70;55.80;;;;;;5104842;28;20027;-84
2022/05/23 13:11:57;;;;;;;6.00;2.42;;;28.00;55.30;;;;;;5105734;28;20040;-83
2022/05/23 13:14:23;;;;;;;8.68;2.35;;;28.10;54.70;;;;;;5105588;28;20024;-83
2022/05/23 13:16:57;;;;;;;6.85;2.40;;;28.10;55.20;;;;;;5101514;28;20404;-83
2022/05/23 13:22:21;;;;;;;7.30;2.30;;;27.60;53.90;;;;;;5108354;28;20031;-84
2022/05/23 13:24:57;;;;;;;6.82;2.35;;;27.10;56.10;;;;;;5101168;28;20016;-83
2022/05/23 13:27:37;;;;;;;5.78;2.47;;;27.60;55.60;;;;;;5096188;28;20123;-84
2022/05/23 13:30:07;;;;;;;8.85;2.08;;;27.70;55.60;;;;;;5099809;28;20012;-84
2022/05/23 13:32:38;;;;;;;;;;;27.70;55.20;;;;;;5099322;28;20080;-83
2022/05/23 13:35:22;;;;;;;4.45;2.00;;;27.80;54.50;;;;;;5099362;28;19963;-84
2022/05/23 13:37:48;;;;;;;5.20;2.47;;;28.20;55.60;;;;;;5099521;28;20452;-83
2022/05/23 13:40:19;;;;;;;8.00;2.88;;;28.60;54.70;;;;;;5100421;28;20028;-83
2022/05/23 13:42:45;;;;;;;6.15;2.58;;;28.00;54.20;;;;;;5103610;28;20485;-83
2022/05/23 13:45:21;;;;;;;6.40;2.40;;;27.80;53.70;;;;;;5103650;28;20435;-84
2022/05/23 13:48:14;;;;;;;4.30;1.80;;;27.90;54.70;;;;;;5101871;28;20023;-82
2022/05/23 13:50:48;;;;;;;6.82;1.92;;;27.80;54.10;;;;;;5100311;28;20024;-84
2022/05/23 13:53:27;;;;;;;3.63;2.03;;;27.60;55.40;;;;;;5103100;28;20028;-84
2022/05/23 13:55:53;;;;;;;6.47;2.80;;;27.90;54.70;;;;;;5101887;28;20030;-84
2022/05/23 13:58:26;;;;;;;9.68;3.00;;;28.10;54.60;;;;;;5101439;28;20035;-84
2022/05/23 14:01:06;;;;;;;8.07;2.38;;;27.80;54.60;;;;;;5097146;28;20274;-83
2022/05/23 14:03:41;;;;;;;5.47;2.17;;;27.90;55.60;;;;;;5098503;28;20024;-83
2022/05/23 14:06:13;;;;;;;8.95;2.38;;;28.10;54.80;;;;;;5099666;28;20024;-83
2022/05/23 14:08:44;;;;;;;5.38;2.40;;;27.90;54.40;;;;;;5099868;28;20484;-84
2022/05/23 14:11:20;;;;;;;6.65;2.40;;;27.60;54.80;;;;;;5098269;28;20485;-83
2022/05/23 14:13:46;;;;;;;4.75;1.92;;;26.80;56.30;;;;;;5096828;28;20024;-83